Time;durP1;ratioP1;P1;durP2;ratioP2;P2;SDS_P1;SDS_P2;PMS_P1;PMS_P2;Temp;Humidity;BMP_temperature;BMP_pressure;BME280_temperature;BME280_humidity;BME280_pressure;Samples;Min_cycle;Max_cycle;Signal;HPM_P1;HPM_P2
2024/03/21 00:02:17;;;;;;;;;;;;;;;;;;5050485;28;20314;-77
2024/03/21 00:04:42;;;;;;;;;;;;;;;;;;5050964;28;19909;-77
2024/03/21 00:07:08;;;;;;;;;;;;;;;;;;5051588;28;20336;-77
2024/03/21 00:09:33;;;;;;;;;;;;;;;;;;5050983;28;19909;-77
2024/03/21 00:11:59;;;;;;;;;;;;;;;;;;5051312;28;19909;-77
2024/03/21 00:14:25;;;;;;;;;;;;;;;;;;5050225;28;20002;-77
2024/03/21 00:16:51;;;;;;;;;;;;;;;;;;5051651;28;20000;-77
2024/03/21 00:19:17;;;;;;;;;;;;;;;;;;5050137;28;20003;-76
2024/03/21 00:21:42;;;;;;;;;;;;;;;;;;5050312;28;19912;-77
2024/03/21 00:24:07;;;;;;;;;;;;;;;;;;5052198;28;19916;-76
2024/03/21 00:26:32;;;;;;;;;;;;;;;;;;5051709;28;19909;-77
2024/03/21 00:28:58;;;;;;;;;;;;;;;;;;5050356;28;20007;-77
2024/03/21 00:31:23;;;;;;;;;;;;;;;;;;5050868;28;19936;-77
2024/03/21 00:33:49;;;;;;;;;;;;;;;;;;5052893;28;19956;-76
2024/03/21 00:36:14;;;;;;;;;;;;;;;;;;5055239;28;19909;-77
2024/03/21 00:38:39;;;;;;;;;;;;;;;;;;5047150;28;19913;-76
2024/03/21 00:41:04;;;;;;;;;;;;;;;;;;5045621;28;19931;-78
2024/03/21 00:43:30;;;;;;;;;;;;;;;;;;5054439;28;19916;-77
2024/03/21 00:45:55;;;;;;;;;;;;;;;;;;5053903;28;20272;-77
2024/03/21 00:48:20;;;;;;;;;;;;;;;;;;5055714;28;19916;-77
2024/03/21 00:50:45;;;;;;;;;;;;;;;;;;5053221;28;19916;-77
2024/03/21 00:53:10;;;;;;;;;;;;;;;;;;5053813;28;19913;-77
2024/03/21 00:55:36;;;;;;;;;;;;;;;;;;5054559;28;19913;-76
2024/03/21 00:58:01;;;;;;;;;;;;;;;;;;5054105;28;19916;-77
2024/03/21 01:00:26;;;;;;;;;;;;;;;;;;5052944;28;19916;-76
2024/03/21 01:02:51;;;;;;;;;;;;;;;;;;5053181;28;19908;-76
2024/03/21 01:05:18;;;;;;;;;;;;;;;;;;5054941;28;19948;-76
2024/03/21 01:07:43;;;;;;;;;;;;;;;;;;5046543;28;19913;-77
2024/03/21 01:10:09;;;;;;;;;;;;;;;;;;5045160;28;19916;-77
2024/03/21 01:12:34;;;;;;;;;;;;;;;;;;5083004;22;19924;-76
2024/03/21 01:15:00;;;;;;;;;;;;;;;;;;5094857;28;20376;-78
2024/03/21 01:17:25;;;;;;;;;;;;;;;;;;5099249;28;19916;-79
2024/03/21 01:19:50;;;;;;;;;;;;;;;;;;5094518;28;20352;-77
2024/03/21 01:22:15;;;;;;;;;;;;;;;;;;5086827;28;20572;-77
2024/03/21 01:24:40;;;;;;;;;;;;;;;;;;5088382;28;20471;-77
2024/03/21 01:27:05;;;;;;;;;;;;;;;;;;5090786;28;19908;-77
2024/03/21 01:29:33;;;;;;;;;;;;;;;;;;5090027;28;19909;-77
2024/03/21 01:31:58;;;;;;;;;;;;;;;;;;5093047;28;20623;-77
2024/03/21 01:34:23;;;;;;;;;;;;;;;;;;5102620;28;19909;-77
2024/03/21 01:36:52;;;;;;;;;;;;;;;;;;5097728;28;19909;-77
2024/03/21 01:39:17;;;;;;;;;;;;;;;;;;5093166;28;19914;-77
2024/03/21 01:41:43;;;;;;;;;;;;;;;;;;5090980;28;19944;-77
2024/03/21 01:44:08;;;;;;;;;;;;;;;;;;5086973;28;19909;-77
2024/03/21 01:46:33;;;;;;;;;;;;;;;;;;5087446;28;19912;-77
2024/03/21 01:48:58;;;;;;;;;;;;;;;;;;5090032;28;19923;-77
2024/03/21 01:51:23;;;;;;;;;;;;;;;;;;5104287;28;19995;-77
2024/03/21 01:53:48;;;;;;;;;;;;;;;;;;5083881;28;19926;-77
2024/03/21 01:56:13;;;;;;;;;;;;;;;;;;5082390;28;20373;-77
2024/03/21 01:58:39;;;;;;;;;;;;;;;;;;5082753;28;20316;-77
2024/03/21 02:01:04;;;;;;;;;;;;;;;;;;5097440;28;19915;-77
2024/03/21 02:03:30;;;;;;;;;;;;;;;;;;5082407;28;19954;-77
2024/03/21 02:05:55;;;;;;;;;;;;;;;;;;5084792;28;20288;-77
2024/03/21 02:08:20;;;;;;;;;;;;;;;;;;5105407;28;19912;-79
2024/03/21 02:10:45;;;;;;;;;;;;;;;;;;5117726;28;19908;-79
2024/03/21 02:13:12;;;;;;;;;;;;;;;;;;5100290;28;19920;-79
2024/03/21 02:15:37;;;;;;;;;;;;;;;;;;5100387;28;19920;-79
2024/03/21 02:18:02;;;;;;;;;;;;;;;;;;5087147;28;19912;-77
2024/03/21 02:20:27;;;;;;;;;;;;;;;;;;5094845;28;19908;-77
2024/03/21 02:22:53;;;;;;;;;;;;;;;;;;5083942;28;19912;-77
2024/03/21 02:25:18;;;;;;;;;;;;;;;;;;5101961;28;19908;-77
2024/03/21 02:27:43;;;;;;;;;;;;;;;;;;5085363;28;20018;-77
2024/03/21 02:30:08;;;;;;;;;;;;;;;;;;5097731;28;19912;-78
2024/03/21 02:32:33;;;;;;;;;;;;;;;;;;5097665;28;19920;-77
2024/03/21 02:34:59;;;;;;;;;;;;;;;;;;5097175;28;19915;-78
2024/03/21 02:37:24;;;;;;;;;;;;;;;;;;5097179;28;19958;-77
2024/03/21 02:39:52;;;;;;;;;;;;;;;;;;5089285;28;19908;-77
2024/03/21 02:42:17;;;;;;;;;;;;;;;;;;5078968;28;19917;-77
2024/03/21 02:44:42;;;;;;;;;;;;;;;;;;5083551;28;19912;-78
2024/03/21 02:47:08;;;;;;;;;;;;;;;;;;5096626;28;20169;-79
2024/03/21 02:49:33;;;;;;;;;;;;;;;;;;5103878;28;19944;-79
2024/03/21 02:51:58;;;;;;;;;;;;;;;;;;5095855;28;19927;-78
2024/03/21 02:54:23;;;;;;;;;;;;;;;;;;5093964;28;19939;-79
2024/03/21 02:56:49;;;;;;;;;;;;;;;;;;5112238;28;19908;-77
2024/03/21 02:59:14;;;;;;;;;;;;;;;;;;5109221;28;19943;-79
2024/03/21 03:01:39;;;;;;;;;;;;;;;;;;5091979;28;19908;-79
2024/03/21 03:04:04;;;;;;;;;;;;;;;;;;5101652;28;19908;-78
2024/03/21 03:06:29;;;;;;;;;;;;;;;;;;5116478;28;19966;-79
2024/03/21 03:08:54;;;;;;;;;;;;;;;;;;5115777;28;20391;-79
2024/03/21 03:11:19;;;;;;;;;;;;;;;;;;5116509;28;19930;-79
2024/03/21 03:13:45;;;;;;;;;;;;;;;;;;5097324;28;19916;-79
2024/03/21 03:16:10;;;;;;;;;;;;;;;;;;5093547;28;19968;-79
2024/03/21 03:18:35;;;;;;;;;;;;;;;;;;5108986;28;19908;-79
2024/03/21 03:21:00;;;;;;;;;;;;;;;;;;5101463;28;19943;-78
2024/03/21 03:23:25;;;;;;;;;;;;;;;;;;5094891;28;20007;-79
2024/03/21 03:25:50;;;;;;;;;;;;;;;;;;5097946;28;19908;-79
2024/03/21 03:28:15;;;;;;;;;;;;;;;;;;5097899;28;19913;-79
2024/03/21 03:30:41;;;;;;;;;;;;;;;;;;5099331;28;19909;-78
2024/03/21 03:35:33;;;;;;;;;;;;;;;;;;5100695;28;19958;-78
2024/03/21 03:35:51;;;;;;;;;;;;;;;;;;5089460;28;20349;-78
2024/03/21 03:38:16;;;;;;;;;;;;;;;;;;5094612;28;19922;-79
2024/03/21 03:40:41;;;;;;;;;;;;;;;;;;5115911;28;19920;-79
2024/03/21 03:43:07;;;;;;;;;;;;;;;;;;5097335;28;19908;-79
2024/03/21 03:45:32;;;;;;;;;;;;;;;;;;5088385;28;19908;-79
2024/03/21 03:47:57;;;;;;;;;;;;;;;;;;5095957;28;19988;-79
2024/03/21 03:50:22;;;;;;;;;;;;;;;;;;5076299;28;19916;-77
2024/03/21 03:52:47;;;;;;;;;;;;;;;;;;5075013;28;19905;-77
2024/03/21 03:55:12;;;;;;;;;;;;;;;;;;5080158;28;19916;-77
2024/03/21 03:57:37;;;;;;;;;;;;;;;;;;5080956;28;19915;-77
2024/03/21 04:00:02;;;;;;;;;;;;;;;;;;5079291;28;20159;-77
2024/03/21 04:02:29;;;;;;;;;;;;;;;;;;5088179;28;19908;-78
2024/03/21 04:04:54;;;;;;;;;;;;;;;;;;5091016;28;19912;-79
2024/03/21 04:07:21;;;;;;;;;;;;;;;;;;5098795;28;20009;-78
2024/03/21 04:09:46;;;;;;;;;;;;;;;;;;5093339;28;19909;-78
2024/03/21 04:12:11;;;;;;;;;;;;;;;;;;5099024;28;19916;-79
2024/03/21 04:14:36;;;;;;;;;;;;;;;;;;5087809;28;19909;-78
2024/03/21 04:17:01;;;;;;;;;;;;;;;;;;5094674;28;19951;-78
2024/03/21 04:19:27;;;;;;;;;;;;;;;;;;5118730;28;19981;-79
2024/03/21 04:21:52;;;;;;;;;;;;;;;;;;5091910;28;19908;-78
2024/03/21 04:24:17;;;;;;;;;;;;;;;;;;5099362;28;19951;-79
2024/03/21 04:26:42;;;;;;;;;;;;;;;;;;5100715;28;19913;-79
2024/03/21 04:29:07;;;;;;;;;;;;;;;;;;5098763;28;19986;-78
2024/03/21 04:31:32;;;;;;;;;;;;;;;;;;5089689;28;19910;-78
2024/03/21 04:33:57;;;;;;;;;;;;;;;;;;5097296;28;19917;-78
2024/03/21 04:36:22;;;;;;;;;;;;;;;;;;5096676;28;19909;-78
2024/03/21 04:38:48;;;;;;;;;;;;;;;;;;5097423;28;19909;-78
2024/03/21 04:41:13;;;;;;;;;;;;;;;;;;5094024;28;19908;-78
2024/03/21 04:43:38;;;;;;;;;;;;;;;;;;5094759;28;19909;-78
2024/03/21 04:46:03;;;;;;;;;;;;;;;;;;5111535;28;19912;-78
2024/03/21 04:48:28;;;;;;;;;;;;;;;;;;5096058;28;19913;-78
2024/03/21 04:50:53;;;;;;;;;;;;;;;;;;5085365;28;19909;-78
2024/03/21 04:53:18;;;;;;;;;;;;;;;;;;5096999;28;19915;-78
2024/03/21 04:55:43;;;;;;;;;;;;;;;;;;5109745;28;19908;-78
2024/03/21 04:58:08;;;;;;;;;;;;;;;;;;5083097;28;20006;-78
2024/03/21 05:00:34;;;;;;;;;;;;;;;;;;5085180;28;19960;-78
2024/03/21 05:02:59;;;;;;;;;;;;;;;;;;5084846;28;19916;-78
2024/03/21 05:05:24;;;;;;;;;;;;;;;;;;5093176;28;19915;-78
2024/03/21 05:07:49;;;;;;;;;;;;;;;;;;5095663;28;19912;-78
2024/03/21 05:10:15;;;;;;;;;;;;;;;;;;5084879;28;19909;-78
2024/03/21 05:12:40;;;;;;;;;;;;;;;;;;5084897;28;19988;-78
2024/03/21 05:15:05;;;;;;;;;;;;;;;;;;5091861;28;19909;-78
2024/03/21 05:17:30;;;;;;;;;;;;;;;;;;5089476;28;19962;-78
2024/03/21 05:19:55;;;;;;;;;;;;;;;;;;5101503;28;19930;-78
2024/03/21 05:22:20;;;;;;;;;;;;;;;;;;5091375;28;19936;-78
2024/03/21 05:24:46;;;;;;;;;;;;;;;;;;5094620;28;20049;-79
2024/03/21 05:27:15;;;;;;;;;;;;;;;;;;5093921;28;19908;-78
2024/03/21 05:29:40;;;;;;;;;;;;;;;;;;5094716;28;19908;-78
2024/03/21 05:32:05;;;;;;;;;;;;;;;;;;5094890;28;20382;-78
2024/03/21 05:34:30;;;;;;;;;;;;;;;;;;5093663;28;19948;-78
2024/03/21 05:36:55;;;;;;;;;;;;;;;;;;5089907;28;19908;-78
2024/03/21 05:39:20;;;;;;;;;;;;;;;;;;5091368;28;19908;-78
2024/03/21 05:41:45;;;;;;;;;;;;;;;;;;5097211;28;19935;-78
2024/03/21 05:44:11;;;;;;;;;;;;;;;;;;5095903;28;19968;-78
2024/03/21 05:46:36;;;;;;;;;;;;;;;;;;5088545;28;19967;-78
2024/03/21 05:49:01;;;;;;;;;;;;;;;;;;5096636;28;19959;-78
2024/03/21 05:51:26;;;;;;;;;;;;;;;;;;5105164;28;19908;-78
2024/03/21 05:53:51;;;;;;;;;;;;;;;;;;5092600;28;19909;-78
2024/03/21 05:56:17;;;;;;;;;;;;;;;;;;5091959;28;19908;-78
2024/03/21 05:58:43;;;;;;;;;;;;;;;;;;5095105;28;19965;-78
2024/03/21 06:03:40;;;;;;;;;;;;;;;;;;5093451;28;19908;-78
2024/03/21 06:06:05;;;;;;;;;;;;;;;;;;5090242;28;19915;-78
2024/03/21 06:08:30;;;;;;;;;;;;;;;;;;5092423;28;19970;-78
2024/03/21 06:10:55;;;;;;;;;;;;;;;;;;5084723;28;19909;-78
2024/03/21 06:13:20;;;;;;;;;;;;;;;;;;5094490;28;19951;-78
2024/03/21 06:15:45;;;;;;;;;;;;;;;;;;5086766;28;19909;-78
2024/03/21 06:18:10;;;;;;;;;;;;;;;;;;5085534;28;19916;-78
2024/03/21 06:20:36;;;;;;;;;;;;;;;;;;5091848;28;19908;-78
2024/03/21 06:23:01;;;;;;;;;;;;;;;;;;5086716;28;19917;-78
2024/03/21 06:25:26;;;;;;;;;;;;;;;;;;5095634;28;19908;-78
2024/03/21 06:27:52;;;;;;;;;;;;;;;;;;5083724;28;19913;-78
2024/03/21 06:30:17;;;;;;;;;;;;;;;;;;5080120;28;20007;-78
2024/03/21 06:32:42;;;;;;;;;;;;;;;;;;5082158;28;19991;-78
2024/03/21 06:35:07;;;;;;;;;;;;;;;;;;5090814;28;19962;-78
2024/03/21 06:37:33;;;;;;;;;;;;;;;;;;5081084;28;19912;-78
2024/03/21 06:39:58;;;;;;;;;;;;;;;;;;5090552;28;19912;-78
2024/03/21 06:42:23;;;;;;;;;;;;;;;;;;5092958;28;19919;-78
2024/03/21 06:44:48;;;;;;;;;;;;;;;;;;5093909;28;19937;-78
2024/03/21 06:47:14;;;;;;;;;;;;;;;;;;5107576;28;19943;-78
2024/03/21 06:49:39;;;;;;;;;;;;;;;;;;5093674;28;19908;-78
2024/03/21 06:52:04;;;;;;;;;;;;;;;;;;5097133;28;19915;-78
2024/03/21 06:54:31;;;;;;;;;;;;;;;;;;5090224;28;19908;-78
2024/03/21 06:56:57;;;;;;;;;;;;;;;;;;5094032;28;19912;-79
2024/03/21 06:59:22;;;;;;;;;;;;;;;;;;5093404;28;19976;-78
2024/03/21 07:01:47;;;;;;;;;;;;;;;;;;5093696;28;19908;-78
2024/03/21 07:04:12;;;;;;;;;;;;;;;;;;5082671;28;19999;-78
2024/03/21 07:06:37;;;;;;;;;;;;;;;;;;5082387;28;19916;-78
2024/03/21 07:09:03;;;;;;;;;;;;;;;;;;5091483;28;20301;-78
2024/03/21 07:11:30;;;;;;;;;;;;;;;;;;5090362;28;20198;-78
2024/03/21 07:13:59;;;;;;;;;;;;;;;;;;5091345;28;19916;-78
2024/03/21 07:16:24;;;;;;;;;;;;;;;;;;5093793;28;19915;-78
2024/03/21 07:18:49;;;;;;;;;;;;;;;;;;5091939;28;19908;-78
2024/03/21 07:21:14;;;;;;;;;;;;;;;;;;5090429;28;19909;-78
2024/03/21 07:23:39;;;;;;;;;;;;;;;;;;5083129;28;19915;-79
2024/03/21 07:26:06;;;;;;;;;;;;;;;;;;5092040;28;19909;-77
2024/03/21 07:28:31;;;;;;;;;;;;;;;;;;5088079;28;19912;-79
2024/03/21 07:30:56;;;;;;;;;;;;;;;;;;5093032;28;19919;-77
2024/03/21 07:33:21;;;;;;;;;;;;;;;;;;5101296;28;19908;-80
2024/03/21 07:35:46;;;;;;;;;;;;;;;;;;5107768;28;19914;-79
2024/03/21 07:38:12;;;;;;;;;;;;;;;;;;5101340;28;19916;-79
2024/03/21 07:40:37;;;;;;;;;;;;;;;;;;5101219;28;19908;-79
2024/03/21 07:43:02;;;;;;;;;;;;;;;;;;5102953;28;19931;-80
2024/03/21 07:45:27;;;;;;;;;;;;;;;;;;5120923;28;19968;-80
2024/03/21 07:47:52;;;;;;;;;;;;;;;;;;5102968;28;19912;-80
2024/03/21 07:50:17;;;;;;;;;;;;;;;;;;5100648;28;19912;-79
2024/03/21 07:52:43;;;;;;;;;;;;;;;;;;5098871;28;19919;-79
2024/03/21 07:55:08;;;;;;;;;;;;;;;;;;5100222;28;19908;-79
2024/03/21 07:57:33;;;;;;;;;;;;;;;;;;5100913;28;19908;-78
2024/03/21 07:59:58;;;;;;;;;;;;;;;;;;5087413;28;19909;-80
2024/03/21 08:02:23;;;;;;;;;;;;;;;;;;5089295;28;19912;-78
2024/03/21 08:04:48;;;;;;;;;;;;;;;;;;5098473;28;19951;-78
2024/03/21 08:07:14;;;;;;;;;;;;;;;;;;5094174;28;19991;-78
2024/03/21 08:09:39;;;;;;;;;;;;;;;;;;5085998;28;19908;-78
2024/03/21 08:12:04;;;;;;;;;;;;;;;;;;5102100;28;20193;-79
2024/03/21 08:14:29;;;;;;;;;;;;;;;;;;5098173;28;19908;-78
2024/03/21 08:16:54;;;;;;;;;;;;;;;;;;5085931;28;20420;-78
2024/03/21 08:19:19;;;;;;;;;;;;;;;;;;5083897;28;20357;-79
2024/03/21 08:21:44;;;;;;;;;;;;;;;;;;5091830;28;19915;-79
2024/03/21 08:24:10;;;;;;;;;;;;;;;;;;5085042;28;20336;-77
2024/03/21 08:26:35;;;;;;;;;;;;;;;;;;5083779;28;19915;-76
2024/03/21 08:29:00;;;;;;;;;;;;;;;;;;5078941;28;19971;-78
2024/03/21 08:31:25;;;;;;;;;;;;;;;;;;5100847;28;19915;-78
2024/03/21 08:33:51;;;;;;;;;;;;;;;;;;5075783;22;19929;-84
2024/03/21 08:36:16;;;;;;;;;;;;;;;;;;5027527;28;19959;-85
2024/03/21 08:38:44;;;;;;;;;;;;;;;;;;5023509;28;20312;-84
2024/03/21 08:41:09;;;;;;;;;;;;;;;;;;5021593;28;19909;-85
2024/03/21 08:43:34;;;;;;;;;;;;;;;;;;5032649;28;19917;-85
2024/03/21 08:45:59;;;;;;;;;;;;;;;;;;5021299;28;20390;-84
2024/03/21 08:48:25;;;;;;;;;;;;;;;;;;5021919;28;19933;-84
2024/03/21 08:50:50;;;;;;;;;;;;;;;;;;5021548;28;19992;-85
2024/03/21 08:53:15;;;;;;;;;;;;;;;;;;5020994;28;20339;-85
2024/03/21 08:55:43;;;;;;;;;;;;;;;;;;5017048;28;20365;-84
2024/03/21 08:58:08;;;;;;;;;;;;;;;;;;5024159;28;19968;-84
2024/03/21 09:00:33;;;;;;;;;;;;;;;;;;5024458;28;19914;-84
2024/03/21 09:02:58;;;;;;;;;;;;;;;;;;5015898;28;20419;-85
2024/03/21 09:05:27;;;;;;;;;;;;;;;;;;5025267;28;19917;-85
2024/03/21 09:07:52;;;;;;;;;;;;;;;;;;5027719;28;19936;-85
2024/03/21 09:10:17;;;;;;;;;;;;;;;;;;5022728;28;19921;-84
2024/03/21 09:12:42;;;;;;;;;;;;;;;;;;5026013;28;20288;-85
2024/03/21 09:15:08;;;;;;;;;;;;;;;;;;5023763;28;19910;-84
2024/03/21 09:17:33;;;;;;;;;;;;;;;;;;5024751;28;20059;-85
2024/03/21 09:20:02;;;;;;;;;;;;;;;;;;5018718;28;20383;-86
2024/03/21 09:22:27;;;;;;;;;;;;;;;;;;5029052;28;20311;-85
2024/03/21 09:24:52;;;;;;;;;;;;;;;;;;5018493;28;20384;-86
2024/03/21 09:27:17;;;;;;;;;;;;;;;;;;5025389;28;19920;-85
2024/03/21 09:29:42;;;;;;;;;;;;;;;;;;5025653;28;19916;-85
2024/03/21 09:32:07;;;;;;;;;;;;;;;;;;5031560;28;19920;-84
2024/03/21 09:34:33;;;;;;;;;;;;;;;;;;5025061;28;19917;-84
2024/03/21 09:36:58;;;;;;;;;;;;;;;;;;5025442;28;20296;-85
2024/03/21 09:39:23;;;;;;;;;;;;;;;;;;5025387;28;19940;-85
2024/03/21 09:41:48;;;;;;;;;;;;;;;;;;5025784;28;19910;-84
2024/03/21 09:44:16;;;;;;;;;;;;;;;;;;5022957;28;19909;-85
2024/03/21 09:46:41;;;;;;;;;;;;;;;;;;5031523;28;20375;-84
2024/03/21 09:49:07;;;;;;;;;;;;;;;;;;5014737;28;19972;-84
2024/03/21 09:51:32;;;;;;;;;;;;;;;;;;5013949;28;20015;-84
2024/03/21 09:53:57;;;;;;;;;;;;;;;;;;5024372;28;19936;-84
2024/03/21 09:56:22;;;;;;;;;;;;;;;;;;5025200;28;19960;-85
2024/03/21 09:58:47;;;;;;;;;;;;;;;;;;5024675;28;19920;-84
2024/03/21 10:01:13;;;;;;;;;;;;;;;;;;5028019;28;19955;-84
2024/03/21 10:03:41;;;;;;;;;;;;;;;;;;5019844;28;19910;-84
2024/03/21 10:06:06;;;;;;;;;;;;;;;;;;5023324;28;19909;-84
2024/03/21 10:08:31;;;;;;;;;;;;;;;;;;5023647;28;19936;-84
2024/03/21 10:10:58;;;;;;;;;;;;;;;;;;5025591;28;19916;-84
2024/03/21 10:13:26;;;;;;;;;;;;;;;;;;5034599;28;19960;-84
2024/03/21 10:15:51;;;;;;;;;;;;;;;;;;5032827;28;19916;-84
2024/03/21 10:18:16;;;;;;;;;;;;;;;;;;5024448;28;20284;-84
2024/03/21 10:20:41;;;;;;;;;;;;;;;;;;5024667;28;19917;-86
2024/03/21 10:23:07;;;;;;;;;;;;;;;;;;5026905;28;20419;-84
2024/03/21 10:25:38;;;;;;;;;;;;;;;;;;5025299;28;20513;-85
2024/03/21 10:28:03;;;;;;;;;;;;;;;;;;5012218;28;19918;-85
2024/03/21 10:30:31;;;;;;;;;;;;;;;;;;5022826;28;20399;-85
2024/03/21 10:32:56;;;;;;;;;;;;;;;;;;5024556;28;19920;-85
2024/03/21 10:35:21;;;;;;;;;;;;;;;;;;5022072;28;19910;-85
2024/03/21 10:37:46;;;;;;;;;;;;;;;;;;5023302;28;19913;-85
2024/03/21 10:40:11;;;;;;;;;;;;;;;;;;5015693;28;19909;-84
2024/03/21 10:42:40;;;;;;;;;;;;;;;;;;5014763;28;19909;-84
2024/03/21 10:45:08;;;;;;;;;;;;;;;;;;5023130;28;19909;-84
2024/03/21 10:47:34;;;;;;;;;;;;;;;;;;5015136;28;20000;-85
2024/03/21 10:49:59;;;;;;;;;;;;;;;;;;5027328;28;19955;-85
2024/03/21 10:52:26;;;;;;;;;;;;;;;;;;5034207;28;19909;-84
2024/03/21 10:54:52;;;;;;;;;;;;;;;;;;5032953;28;19912;-84
2024/03/21 10:57:17;;;;;;;;;;;;;;;;;;5022753;28;19913;-85
2024/03/21 10:59:45;;;;;;;;;;;;;;;;;;5023451;28;19995;-84
2024/03/21 11:02:16;;;;;;;;;;;;;;;;;;5016429;28;19910;-84
2024/03/21 11:04:41;;;;;;;;;;;;;;;;;;5023087;28;19948;-84
2024/03/21 11:07:09;;;;;;;;;;;;;;;;;;5035186;28;19916;-84
2024/03/21 11:09:34;;;;;;;;;;;;;;;;;;5020359;28;19917;-83
2024/03/21 11:11:59;;;;;;;;;;;;;;;;;;5027780;28;20304;-84
2024/03/21 11:14:40;;;;;;;;;;;;;;;;;;5028161;28;19897;-84
2024/03/21 11:17:06;;;;;;;;;;;;;;;;;;5028353;28;19916;-84
2024/03/21 11:19:31;;;;;;;;;;;;;;;;;;5036036;28;19937;-84
2024/03/21 11:21:56;;;;;;;;;;;;;;;;;;5033784;28;19916;-85
2024/03/21 11:24:21;;;;;;;;;;;;;;;;;;5026021;28;19916;-84
2024/03/21 11:26:46;;;;;;;;;;;;;;;;;;5025222;28;19916;-85
2024/03/21 11:29:15;;;;;;;;;;;;;;;;;;5026451;28;19913;-84
2024/03/21 11:31:41;;;;;;;;;;;;;;;;;;5028980;28;20381;-83
2024/03/21 11:34:06;;;;;;;;;;;;;;;;;;5029181;28;19965;-84
2024/03/21 11:36:31;;;;;;;;;;;;;;;;;;5020549;28;19913;-84
2024/03/21 11:38:57;;;;;;;;;;;;;;;;;;5013641;28;19917;-84
2024/03/21 11:41:22;;;;;;;;;;;;;;;;;;5012233;28;19937;-84
2024/03/21 11:43:49;;;;;;;;;;;;;;;;;;5014600;28;19913;-84
2024/03/21 11:46:14;;;;;;;;;;;;;;;;;;5021883;28;19916;-85
2024/03/21 11:48:39;;;;;;;;;;;;;;;;;;5021538;28;19913;-84
2024/03/21 11:51:07;;;;;;;;;;;;;;;;;;5021435;28;19910;-85
2024/03/21 11:53:35;;;;;;;;;;;;;;;;;;5014858;28;19909;-85
2024/03/21 11:56:00;;;;;;;;;;;;;;;;;;5018876;28;19909;-84
2024/03/21 11:58:25;;;;;;;;;;;;;;;;;;5021128;28;19910;-84
2024/03/21 12:00:50;;;;;;;;;;;;;;;;;;5021801;28;19910;-84
2024/03/21 12:03:15;;;;;;;;;;;;;;;;;;5015223;28;19914;-84
2024/03/21 12:05:41;;;;;;;;;;;;;;;;;;5023705;28;19931;-83
2024/03/21 12:08:06;;;;;;;;;;;;;;;;;;5021677;28;19952;-84
2024/03/21 12:10:31;;;;;;;;;;;;;;;;;;5018421;28;19909;-85
2024/03/21 12:12:56;;;;;;;;;;;;;;;;;;5016531;28;19979;-84
2024/03/21 12:15:21;;;;;;;;;;;;;;;;;;5034688;28;20393;-83
2024/03/21 12:17:46;;;;;;;;;;;;;;;;;;5026057;28;20398;-84
2024/03/21 12:20:12;;;;;;;;;;;;;;;;;;5022824;28;19917;-84
2024/03/21 12:22:37;;;;;;;;;;;;;;;;;;5015322;28;19936;-84
2024/03/21 12:25:02;;;;;;;;;;;;;;;;;;5014390;28;20323;-85
2024/03/21 12:27:27;;;;;;;;;;;;;;;;;;5022062;28;20043;-85
2024/03/21 12:29:53;;;;;;;;;;;;;;;;;;5027768;28;19909;-85
2024/03/21 12:32:18;;;;;;;;;;;;;;;;;;5026482;28;19921;-85
2024/03/21 12:34:46;;;;;;;;;;;;;;;;;;5028520;28;19940;-85
2024/03/21 12:37:11;;;;;;;;;;;;;;;;;;5026024;28;19967;-85
2024/03/21 12:39:36;;;;;;;;;;;;;;;;;;5018158;28;19910;-84
2024/03/21 12:42:04;;;;;;;;;;;;;;;;;;5016588;28;19913;-83
2024/03/21 12:44:30;;;;;;;;;;;;;;;;;;5017437;28;19909;-83
2024/03/21 12:46:55;;;;;;;;;;;;;;;;;;5029289;28;19910;-85
2024/03/21 12:49:20;;;;;;;;;;;;;;;;;;5044633;28;20422;-85
2024/03/21 12:51:45;;;;;;;;;;;;;;;;;;5031016;28;19916;-84
2024/03/21 12:54:13;;;;;;;;;;;;;;;;;;5036448;28;19909;-84
2024/03/21 12:56:38;;;;;;;;;;;;;;;;;;5023521;28;19909;-83
2024/03/21 12:59:03;;;;;;;;;;;;;;;;;;5027724;28;20276;-84
2024/03/21 13:01:29;;;;;;;;;;;;;;;;;;5025929;28;20335;-85
2024/03/21 13:03:54;;;;;;;;;;;;;;;;;;5028864;28;19924;-85
2024/03/21 13:06:19;;;;;;;;;;;;;;;;;;5017766;28;20355;-84
2024/03/21 13:08:45;;;;;;;;;;;;;;;;;;5020723;28;19920;-84
2024/03/21 13:11:10;;;;;;;;;;;;;;;;;;5030151;28;19909;-84
2024/03/21 13:13:37;;;;;;;;;;;;;;;;;;5020669;28;19909;-85
2024/03/21 13:16:02;;;;;;;;;;;;;;;;;;5026308;28;20324;-84
2024/03/21 13:18:27;;;;;;;;;;;;;;;;;;5018493;28;19976;-84
2024/03/21 13:20:53;;;;;;;;;;;;;;;;;;5019528;28;20060;-84
2024/03/21 13:23:19;;;;;;;;;;;;;;;;;;5028821;28;20320;-84
2024/03/21 13:25:47;;;;;;;;;;;;;;;;;;5026846;28;19909;-84
2024/03/21 13:28:15;;;;;;;;;;;;;;;;;;5024474;28;19918;-84
2024/03/21 13:30:41;;;;;;;;;;;;;;;;;;5024669;28;19910;-84
2024/03/21 13:33:06;;;;;;;;;;;;;;;;;;5029372;28;19923;-84
2024/03/21 13:35:33;;;;;;;;;;;;;;;;;;5037639;28;19936;-85
2024/03/21 13:38:02;;;;;;;;;;;;;;;;;;5021909;28;20402;-85
2024/03/21 13:40:28;;;;;;;;;;;;;;;;;;5028935;28;19909;-85
2024/03/21 13:42:54;;;;;;;;;;;;;;;;;;5026762;28;19909;-84
2024/03/21 13:45:19;;;;;;;;;;;;;;;;;;5028573;28;19916;-85
2024/03/21 13:47:44;;;;;;;;;;;;;;;;;;5018852;28;19945;-85
2024/03/21 13:50:12;;;;;;;;;;;;;;;;;;5016261;28;19909;-84
2024/03/21 13:52:37;;;;;;;;;;;;;;;;;;5022684;28;19959;-84
2024/03/21 13:55:03;;;;;;;;;;;;;;;;;;5018082;28;19917;-84
2024/03/21 13:57:34;;;;;;;;;;;;;;;;;;5034961;28;19913;-85
2024/03/21 13:59:59;;;;;;;;;;;;;;;;;;5026882;28;19917;-85
2024/03/21 14:02:30;;;;;;;;;;;;;;;;;;5021068;28;19913;-84
2024/03/21 14:05:00;;;;;;;;;;;;;;;;;;5025022;28;19916;-85
2024/03/21 14:07:26;;;;;;;;;;;;;;;;;;5019695;28;19910;-85
2024/03/21 14:09:51;;;;;;;;;;;;;;;;;;5022848;28;19921;-85
2024/03/21 14:12:25;;;;;;;;;;;;;;;;;;5020217;28;19921;-83
2024/03/21 14:14:52;;;;;;;;;;;;;;;;;;5025073;28;19916;-84
2024/03/21 14:17:18;;;;;;;;;;;;;;;;;;5022384;28;19910;-84
2024/03/21 14:19:46;;;;;;;;;;;;;;;;;;5021196;28;19917;-85
2024/03/21 14:22:11;;;;;;;;;;;;;;;;;;5019716;28;20000;-84
2024/03/21 14:24:36;;;;;;;;;;;;;;;;;;5026565;28;19982;-84
2024/03/21 14:27:03;;;;;;;;;;;;;;;;;;5022970;28;20384;-84
2024/03/21 14:29:37;;;;;;;;;;;;;;;;;;5017709;28;19933;-85
2024/03/21 14:32:02;;;;;;;;;;;;;;;;;;5027956;28;19923;-86
2024/03/21 14:34:27;;;;;;;;;;;;;;;;;;5020735;28;19921;-85
2024/03/21 14:36:52;;;;;;;;;;;;;;;;;;5026314;28;19988;-84
2024/03/21 14:39:18;;;;;;;;;;;;;;;;;;5022259;28;20380;-85
2024/03/21 14:41:43;;;;;;;;;;;;;;;;;;5025366;28;19910;-84
2024/03/21 14:44:10;;;;;;;;;;;;;;;;;;5016918;28;19917;-84
2024/03/21 14:46:38;;;;;;;;;;;;;;;;;;5018885;28;20003;-84
2024/03/21 14:49:04;;;;;;;;;;;;;;;;;;5016221;28;20367;-84
2024/03/21 14:51:29;;;;;;;;;;;;;;;;;;5018813;28;19910;-85
2024/03/21 14:53:54;;;;;;;;;;;;;;;;;;5020538;28;19916;-85
2024/03/21 14:56:20;;;;;;;;;;;;;;;;;;5017785;28;19910;-85
2024/03/21 14:58:45;;;;;;;;;;;;;;;;;;5019780;28;20015;-86
2024/03/21 15:01:10;;;;;;;;;;;;;;;;;;5018026;28;19963;-85
2024/03/21 15:03:38;;;;;;;;;;;;;;;;;;5025646;28;19916;-86
2024/03/21 15:06:03;;;;;;;;;;;;;;;;;;5014698;28;20281;-85
2024/03/21 15:08:28;;;;;;;;;;;;;;;;;;5021473;28;19913;-85
2024/03/21 15:10:53;;;;;;;;;;;;;;;;;;5017228;28;19952;-86
2024/03/21 15:13:19;;;;;;;;;;;;;;;;;;5033853;28;19917;-85
2024/03/21 15:15:44;;;;;;;;;;;;;;;;;;5026506;28;19909;-86
2024/03/21 15:18:09;;;;;;;;;;;;;;;;;;5025202;28;19913;-85
2024/03/21 15:20:35;;;;;;;;;;;;;;;;;;5018147;28;19932;-86
2024/03/21 15:23:00;;;;;;;;;;;;;;;;;;5022623;28;20040;-84
2024/03/21 15:25:26;;;;;;;;;;;;;;;;;;5012891;28;20007;-85
2024/03/21 15:27:51;;;;;;;;;;;;;;;;;;5020647;28;20382;-85
2024/03/21 15:30:27;;;;;;;;;;;;;;;;;;5026287;28;19948;-86
2024/03/21 15:32:53;;;;;;;;;;;;;;;;;;5030296;28;19917;-85
2024/03/21 15:38:13;;;;;;;;;;;;;;;;;;5018895;28;19909;-86
2024/03/21 15:40:39;;;;;;;;;;;;;;;;;;5017044;28;19914;-83
2024/03/21 15:43:10;;;;;;;;;;;;;;;;;;5021873;28;19964;-85
2024/03/21 15:45:46;;;;;;;;;;;;;;;;;;5016724;28;19916;-85
2024/03/21 15:48:20;;;;;;;;;;;;;;;;;;5029340;28;19913;-85
2024/03/21 15:50:45;;;;;;;;;;;;;;;;;;5030383;28;19963;-86
2024/03/21 15:53:10;;;;;;;;;;;;;;;;;;5020362;28;19913;-85
2024/03/21 15:55:36;;;;;;;;;;;;;;;;;;5019361;28;19948;-86
2024/03/21 15:58:01;;;;;;;;;;;;;;;;;;5022604;28;19916;-85
2024/03/21 16:00:26;;;;;;;;;;;;;;;;;;5031201;28;19996;-85
2024/03/21 16:03:10;;;;;;;;;;;;;;;;;;5029515;28;20276;-86
2024/03/21 16:05:41;;;;;;;;;;;;;;;;;;5028124;28;19910;-86
2024/03/21 16:08:09;;;;;;;;;;;;;;;;;;5007669;28;19920;-85
2024/03/21 16:10:34;;;;;;;;;;;;;;;;;;5019773;28;19956;-85
2024/03/21 16:12:59;;;;;;;;;;;;;;;;;;5035691;28;19909;-85
2024/03/21 16:15:28;;;;;;;;;;;;;;;;;;5024964;28;20296;-86
2024/03/21 16:17:53;;;;;;;;;;;;;;;;;;5026618;28;19910;-85
2024/03/21 16:20:18;;;;;;;;;;;;;;;;;;5021089;28;19909;-85
2024/03/21 16:22:44;;;;;;;;;;;;;;;;;;5023795;28;19910;-85
2024/03/21 16:25:09;;;;;;;;;;;;;;;;;;5015871;28;19909;-85
2024/03/21 16:27:40;;;;;;;;;;;;;;;;;;5015669;28;19945;-85
2024/03/21 16:30:06;;;;;;;;;;;;;;;;;;5016813;28;20389;-86
2024/03/21 16:32:31;;;;;;;;;;;;;;;;;;5022857;28;19920;-84
2024/03/21 16:34:57;;;;;;;;;;;;;;;;;;5025152;28;19917;-85
2024/03/21 16:37:22;;;;;;;;;;;;;;;;;;5022211;28;20007;-85
2024/03/21 16:39:47;;;;;;;;;;;;;;;;;;5026928;28;19959;-86
2024/03/21 16:42:12;;;;;;;;;;;;;;;;;;5021105;28;19920;-86